sensor_id;sensor_type;location;lat;lon;timestamp;pressure;altitude;pressure_sealevel;temperature;humidity
80397;BME280;69721;55.894;-3.052;2023-05-10T00:00:42;100322.83;;;15.07;41.64
80397;BME280;69721;55.894;-3.052;2023-05-10T00:03:07;100326.30;;;14.90;41.71
80397;BME280;69721;55.894;-3.052;2023-05-10T00:05:33;100323.94;;;14.90;41.04
80397;BME280;69721;55.894;-3.052;2023-05-10T00:08:00;100329.14;;;15.17;41.44
80397;BME280;69721;55.894;-3.052;2023-05-10T00:10:25;100329.47;;;14.87;41.33
80397;BME280;69721;55.894;-3.052;2023-05-10T00:12:51;100329.86;;;15.20;40.90
80397;BME280;69721;55.894;-3.052;2023-05-10T00:15:16;100325.19;;;15.55;40.56
80397;BME280;69721;55.894;-3.052;2023-05-10T00:17:41;100326.42;;;14.67;41.40
80397;BME280;69721;55.894;-3.052;2023-05-10T00:20:08;100324.17;;;14.83;41.52
80397;BME280;69721;55.894;-3.052;2023-05-10T00:22:34;100322.02;;;14.77;41.51
80397;BME280;69721;55.894;-3.052;2023-05-10T00:24:59;100315.35;;;15.15;40.62
80397;BME280;69721;55.894;-3.052;2023-05-10T00:27:23;100317.79;;;14.67;40.64
80397;BME280;69721;55.894;-3.052;2023-05-10T00:29:49;100316.05;;;14.96;40.48
80397;BME280;69721;55.894;-3.052;2023-05-10T00:32:14;100315.11;;;14.77;41.07
80397;BME280;69721;55.894;-3.052;2023-05-10T00:34:40;100315.44;;;14.39;41.70
80397;BME280;69721;55.894;-3.052;2023-05-10T00:37:05;100317.21;;;14.57;41.78
80397;BME280;69721;55.894;-3.052;2023-05-10T00:39:30;100314.27;;;14.25;41.94
80397;BME280;69721;55.894;-3.052;2023-05-10T00:41:56;100314.18;;;14.32;42.09
80397;BME280;69721;55.894;-3.052;2023-05-10T00:44:23;100317.94;;;13.87;42.45
80397;BME280;69721;55.894;-3.052;2023-05-10T00:46:49;100314.93;;;14.23;42.20
80397;BME280;69721;55.894;-3.052;2023-05-10T00:49:14;100313.21;;;14.47;41.85
80397;BME280;69721;55.894;-3.052;2023-05-10T00:51:40;100308.85;;;14.17;41.86
80397;BME280;69721;55.894;-3.052;2023-05-10T00:54:05;100305.23;;;14.51;41.39
80397;BME280;69721;55.894;-3.052;2023-05-10T00:56:31;100305.01;;;14.18;42.05
80397;BME280;69721;55.894;-3.052;2023-05-10T00:58:56;100303.05;;;13.90;42.07
80397;BME280;69721;55.894;-3.052;2023-05-10T01:01:22;100305.86;;;14.08;42.42
80397;BME280;69721;55.894;-3.052;2023-05-10T01:03:47;100310.19;;;13.41;43.36
80397;BME280;69721;55.894;-3.052;2023-05-10T01:06:13;100313.50;;;13.34;44.10
80397;BME280;69721;55.894;-3.052;2023-05-10T01:08:38;100311.44;;;13.87;43.10
80397;BME280;69721;55.894;-3.052;2023-05-10T01:11:04;100311.76;;;14.26;42.53
80397;BME280;69721;55.894;-3.052;2023-05-10T01:13:33;100307.55;;;13.74;42.91
80397;BME280;69721;55.894;-3.052;2023-05-10T01:15:55;100304.88;;;13.92;42.97
80397;BME280;69721;55.894;-3.052;2023-05-10T01:18:27;100301.79;;;13.74;42.81
80397;BME280;69721;55.894;-3.052;2023-05-10T01:20:48;100307.23;;;13.72;42.70
80397;BME280;69721;55.894;-3.052;2023-05-10T01:23:23;100305.95;;;13.59;42.85
80397;BME280;69721;55.894;-3.052;2023-05-10T01:25:48;100308.47;;;14.00;42.47
80397;BME280;69721;55.894;-3.052;2023-05-10T01:28:18;100309.34;;;13.85;42.36
80397;BME280;69721;55.894;-3.052;2023-05-10T01:30:45;100306.61;;;13.81;42.17
80397;BME280;69721;55.894;-3.052;2023-05-10T01:32:56;100307.10;;;13.59;42.31
80397;BME280;69721;55.894;-3.052;2023-05-10T01:35:26;100309.07;;;13.48;43.10
80397;BME280;69721;55.894;-3.052;2023-05-10T01:37:50;100311.42;;;13.35;43.40
80397;BME280;69721;55.894;-3.052;2023-05-10T01:40:16;100310.09;;;13.51;43.32
80397;BME280;69721;55.894;-3.052;2023-05-10T01:42:42;100310.89;;;13.67;42.75
80397;BME280;69721;55.894;-3.052;2023-05-10T01:45:07;100310.20;;;13.90;42.71
80397;BME280;69721;55.894;-3.052;2023-05-10T01:47:31;100307.74;;;12.84;43.95
80397;BME280;69721;55.894;-3.052;2023-05-10T01:49:55;100307.31;;;12.63;44.34
80397;BME280;69721;55.894;-3.052;2023-05-10T01:52:19;100307.16;;;12.70;44.16
80397;BME280;69721;55.894;-3.052;2023-05-10T01:54:50;100303.40;;;12.61;44.24
80397;BME280;69721;55.894;-3.052;2023-05-10T01:57:09;100299.25;;;12.79;44.21
80397;BME280;69721;55.894;-3.052;2023-05-10T01:59:35;100306.75;;;13.25;43.85
80397;BME280;69721;55.894;-3.052;2023-05-10T02:02:00;100306.06;;;12.54;44.98
80397;BME280;69721;55.894;-3.052;2023-05-10T02:04:25;100308.56;;;12.00;46.20
80397;BME280;69721;55.894;-3.052;2023-05-10T02:06:52;100306.49;;;13.04;44.88
80397;BME280;69721;55.894;-3.052;2023-05-10T02:09:16;100307.16;;;12.48;45.56
80397;BME280;69721;55.894;-3.052;2023-05-10T02:11:42;100310.01;;;12.86;44.88
80397;BME280;69721;55.894;-3.052;2023-05-10T02:14:08;100310.21;;;12.94;44.59
80397;BME280;69721;55.894;-3.052;2023-05-10T02:16:32;100308.66;;;12.61;45.11
80397;BME280;69721;55.894;-3.052;2023-05-10T02:18:59;100317.67;;;11.93;46.21
80397;BME280;69721;55.894;-3.052;2023-05-10T02:21:24;100315.38;;;11.84;46.34
80397;BME280;69721;55.894;-3.052;2023-05-10T02:23:51;100313.65;;;11.59;46.77
80397;BME280;69721;55.894;-3.052;2023-05-10T02:26:16;100308.19;;;12.10;46.00
80397;BME280;69721;55.894;-3.052;2023-05-10T02:28:41;100312.91;;;12.02;45.76
80397;BME280;69721;55.894;-3.052;2023-05-10T02:31:06;100316.68;;;11.73;46.19
80397;BME280;69721;55.894;-3.052;2023-05-10T02:33:32;100317.50;;;11.98;45.53
80397;BME280;69721;55.894;-3.052;2023-05-10T02:35:57;100319.70;;;11.60;46.33
80397;BME280;69721;55.894;-3.052;2023-05-10T02:38:23;100318.02;;;11.73;45.74
80397;BME280;69721;55.894;-3.052;2023-05-10T02:40:48;100315.44;;;11.65;46.69
80397;BME280;69721;55.894;-3.052;2023-05-10T02:43:14;100318.48;;;12.28;45.70
80397;BME280;69721;55.894;-3.052;2023-05-10T02:45:39;100316.79;;;11.83;46.42
80397;BME280;69721;55.894;-3.052;2023-05-10T02:48:04;100317.02;;;11.66;46.46
80397;BME280;69721;55.894;-3.052;2023-05-10T02:50:30;100324.82;;;12.25;45.54
80397;BME280;69721;55.894;-3.052;2023-05-10T02:53:00;100324.24;;;12.03;45.15
80397;BME280;69721;55.894;-3.052;2023-05-10T02:55:27;100324.65;;;12.43;44.33
80397;BME280;69721;55.894;-3.052;2023-05-10T02:57:50;100321.98;;;12.74;43.79
80397;BME280;69721;55.894;-3.052;2023-05-10T03:00:11;100327.79;;;12.42;44.30
80397;BME280;69721;55.894;-3.052;2023-05-10T03:02:36;100327.75;;;12.40;45.20
80397;BME280;69721;55.894;-3.052;2023-05-10T03:05:02;100325.00;;;12.68;44.48
80397;BME280;69721;55.894;-3.052;2023-05-10T03:07:27;100323.89;;;12.41;44.62
80397;BME280;69721;55.894;-3.052;2023-05-10T03:09:52;100319.21;;;12.31;44.70
80397;BME280;69721;55.894;-3.052;2023-05-10T03:12:25;100314.34;;;12.63;44.18
80397;BME280;69721;55.894;-3.052;2023-05-10T03:14:53;100311.36;;;12.61;43.99
80397;BME280;69721;55.894;-3.052;2023-05-10T03:17:11;100309.09;;;12.78;43.99
80397;BME280;69721;55.894;-3.052;2023-05-10T03:19:40;100313.34;;;12.74;43.84
80397;BME280;69721;55.894;-3.052;2023-05-10T03:22:04;100311.20;;;12.42;43.78
80397;BME280;69721;55.894;-3.052;2023-05-10T03:24:27;100315.14;;;12.92;43.48
80397;BME280;69721;55.894;-3.052;2023-05-10T03:26:52;100311.36;;;12.70;44.06
80397;BME280;69721;55.894;-3.052;2023-05-10T03:29:16;100312.84;;;12.35;44.11
80397;BME280;69721;55.894;-3.052;2023-05-10T03:31:41;100314.13;;;11.93;45.04
80397;BME280;69721;55.894;-3.052;2023-05-10T03:34:08;100310.18;;;12.56;44.24
80397;BME280;69721;55.894;-3.052;2023-05-10T03:36:33;100307.95;;;12.68;44.45
80397;BME280;69721;55.894;-3.052;2023-05-10T03:38:59;100310.57;;;12.60;44.16
80397;BME280;69721;55.894;-3.052;2023-05-10T03:41:24;100310.10;;;12.28;45.16
80397;BME280;69721;55.894;-3.052;2023-05-10T03:43:50;100307.52;;;12.49;44.78
80397;BME280;69721;55.894;-3.052;2023-05-10T03:46:17;100307.58;;;12.26;45.10
80397;BME280;69721;55.894;-3.052;2023-05-10T03:48:41;100297.47;;;12.82;45.01
80397;BME280;69721;55.894;-3.052;2023-05-10T03:51:06;100304.24;;;12.39;44.94
80397;BME280;69721;55.894;-3.052;2023-05-10T03:53:32;100309.36;;;11.87;45.85
80397;BME280;69721;55.894;-3.052;2023-05-10T03:55:57;100305.08;;;11.59;47.13
80397;BME280;69721;55.894;-3.052;2023-05-10T03:58:23;100301.45;;;12.26;45.27
80397;BME280;69721;55.894;-3.052;2023-05-10T04:00:48;100299.91;;;12.19;44.95
80397;BME280;69721;55.894;-3.052;2023-05-10T04:03:14;100299.40;;;12.37;44.95
80397;BME280;69721;55.894;-3.052;2023-05-10T04:05:40;100297.03;;;12.44;44.91
80397;BME280;69721;55.894;-3.052;2023-05-10T04:08:05;100295.00;;;12.50;44.89
80397;BME280;69721;55.894;-3.052;2023-05-10T04:10:31;100295.45;;;12.83;44.47
80397;BME280;69721;55.894;-3.052;2023-05-10T04:12:57;100294.92;;;12.58;44.49
80397;BME280;69721;55.894;-3.052;2023-05-10T04:15:23;100297.65;;;12.61;44.36
80397;BME280;69721;55.894;-3.052;2023-05-10T04:17:49;100302.24;;;11.64;46.09
80397;BME280;69721;55.894;-3.052;2023-05-10T04:20:14;100301.38;;;12.05;45.09
80397;BME280;69721;55.894;-3.052;2023-05-10T04:22:39;100301.15;;;12.43;44.89
80397;BME280;69721;55.894;-3.052;2023-05-10T04:25:06;100297.22;;;12.44;44.43
80397;BME280;69721;55.894;-3.052;2023-05-10T04:27:30;100295.21;;;12.33;44.54
80397;BME280;69721;55.894;-3.052;2023-05-10T04:29:56;100300.24;;;12.12;44.83
80397;BME280;69721;55.894;-3.052;2023-05-10T04:32:21;100298.69;;;12.41;44.42
80397;BME280;69721;55.894;-3.052;2023-05-10T04:34:47;100299.28;;;12.71;43.99
80397;BME280;69721;55.894;-3.052;2023-05-10T04:37:12;100299.47;;;12.85;43.63
80397;BME280;69721;55.894;-3.052;2023-05-10T04:39:38;100300.85;;;12.80;43.69
80397;BME280;69721;55.894;-3.052;2023-05-10T04:42:03;100300.31;;;11.30;46.03
80397;BME280;69721;55.894;-3.052;2023-05-10T04:44:28;100300.27;;;11.68;45.58
80397;BME280;69721;55.894;-3.052;2023-05-10T04:46:54;100298.04;;;12.29;44.52
80397;BME280;69721;55.894;-3.052;2023-05-10T04:49:19;100304.05;;;12.34;44.82
80397;BME280;69721;55.894;-3.052;2023-05-10T04:51:45;100304.61;;;11.80;45.73
80397;BME280;69721;55.894;-3.052;2023-05-10T04:54:10;100305.09;;;12.16;44.66
80397;BME280;69721;55.894;-3.052;2023-05-10T04:56:36;100302.03;;;12.00;44.80
80397;BME280;69721;55.894;-3.052;2023-05-10T04:59:01;100299.88;;;12.26;44.39
80397;BME280;69721;55.894;-3.052;2023-05-10T05:01:27;100301.78;;;11.89;44.81
80397;BME280;69721;55.894;-3.052;2023-05-10T05:03:52;100302.67;;;12.13;44.94
80397;BME280;69721;55.894;-3.052;2023-05-10T05:06:18;100305.51;;;12.09;44.69
80397;BME280;69721;55.894;-3.052;2023-05-10T05:08:43;100308.36;;;12.02;44.83
80397;BME280;69721;55.894;-3.052;2023-05-10T05:11:09;100309.09;;;12.21;44.69
80397;BME280;69721;55.894;-3.052;2023-05-10T05:13:35;100307.45;;;12.37;44.81
80397;BME280;69721;55.894;-3.052;2023-05-10T05:16:01;100307.74;;;12.23;45.19
80397;BME280;69721;55.894;-3.052;2023-05-10T05:18:25;100310.87;;;11.70;45.28
80397;BME280;69721;55.894;-3.052;2023-05-10T05:20:51;100309.63;;;11.59;45.98
80397;BME280;69721;55.894;-3.052;2023-05-10T05:23:16;100310.56;;;11.41;46.37
80397;BME280;69721;55.894;-3.052;2023-05-10T05:25:41;100314.35;;;11.96;45.58
80397;BME280;69721;55.894;-3.052;2023-05-10T05:28:07;100314.14;;;12.21;45.17
80397;BME280;69721;55.894;-3.052;2023-05-10T05:30:32;100309.09;;;12.48;44.89
80397;BME280;69721;55.894;-3.052;2023-05-10T05:32:58;100307.05;;;12.46;44.02
80397;BME280;69721;55.894;-3.052;2023-05-10T05:35:24;100307.98;;;13.01;43.62
80397;BME280;69721;55.894;-3.052;2023-05-10T05:37:49;100305.76;;;12.89;43.64
80397;BME280;69721;55.894;-3.052;2023-05-10T05:40:14;100301.01;;;12.90;43.65
80397;BME280;69721;55.894;-3.052;2023-05-10T05:42:40;100298.96;;;13.11;43.58
80397;BME280;69721;55.894;-3.052;2023-05-10T05:45:06;100302.78;;;13.22;43.83
80397;BME280;69721;55.894;-3.052;2023-05-10T05:47:31;100299.47;;;13.14;42.98
80397;BME280;69721;55.894;-3.052;2023-05-10T05:49:56;100298.44;;;13.40;42.62
80397;BME280;69721;55.894;-3.052;2023-05-10T05:52:22;100297.78;;;13.50;42.50
80397;BME280;69721;55.894;-3.052;2023-05-10T05:54:47;100300.56;;;13.53;42.48
80397;BME280;69721;55.894;-3.052;2023-05-10T05:57:13;100298.40;;;12.87;43.67
80397;BME280;69721;55.894;-3.052;2023-05-10T05:59:38;100300.57;;;12.97;43.74
80397;BME280;69721;55.894;-3.052;2023-05-10T06:02:03;100295.42;;;12.92;43.79
80397;BME280;69721;55.894;-3.052;2023-05-10T06:04:29;100299.01;;;13.20;43.97
80397;BME280;69721;55.894;-3.052;2023-05-10T06:06:54;100300.25;;;13.16;43.70
80397;BME280;69721;55.894;-3.052;2023-05-10T06:09:20;100302.33;;;12.40;44.73
80397;BME280;69721;55.894;-3.052;2023-05-10T06:11:45;100301.09;;;13.48;43.37
80397;BME280;69721;55.894;-3.052;2023-05-10T06:14:11;100299.22;;;13.53;42.99
80397;BME280;69721;55.894;-3.052;2023-05-10T06:16:36;100304.46;;;13.18;43.77
80397;BME280;69721;55.894;-3.052;2023-05-10T06:19:02;100312.44;;;12.49;44.68
80397;BME280;69721;55.894;-3.052;2023-05-10T06:21:27;100314.33;;;12.65;45.08
80397;BME280;69721;55.894;-3.052;2023-05-10T06:23:53;100307.97;;;13.72;43.96
80397;BME280;69721;55.894;-3.052;2023-05-10T06:26:19;100304.27;;;13.53;44.01
80397;BME280;69721;55.894;-3.052;2023-05-10T06:28:45;100299.78;;;14.60;43.29
80397;BME280;69721;55.894;-3.052;2023-05-10T06:31:10;100297.34;;;15.16;41.74
80397;BME280;69721;55.894;-3.052;2023-05-10T06:33:36;100297.21;;;14.94;42.51
80397;BME280;69721;55.894;-3.052;2023-05-10T06:36:01;100298.27;;;14.45;42.96
80397;BME280;69721;55.894;-3.052;2023-05-10T06:38:26;100297.34;;;15.58;41.35
80397;BME280;69721;55.894;-3.052;2023-05-10T06:40:52;100295.27;;;15.31;40.87
80397;BME280;69721;55.894;-3.052;2023-05-10T06:43:19;100298.06;;;15.08;41.41
80397;BME280;69721;55.894;-3.052;2023-05-10T06:45:44;100301.52;;;15.81;41.11
80397;BME280;69721;55.894;-3.052;2023-05-10T06:48:10;100301.36;;;15.63;40.75
80397;BME280;69721;55.894;-3.052;2023-05-10T06:50:35;100301.05;;;15.36;40.61
80397;BME280;69721;55.894;-3.052;2023-05-10T06:53:01;100299.72;;;16.05;40.81
80397;BME280;69721;55.894;-3.052;2023-05-10T06:55:26;100298.28;;;16.51;40.57
80397;BME280;69721;55.894;-3.052;2023-05-10T06:57:51;100299.31;;;16.85;39.56
80397;BME280;69721;55.894;-3.052;2023-05-10T07:00:18;100299.98;;;15.36;40.15
80397;BME280;69721;55.894;-3.052;2023-05-10T07:02:42;100301.81;;;16.09;40.64
80397;BME280;69721;55.894;-3.052;2023-05-10T07:05:09;100304.94;;;16.98;40.15
80397;BME280;69721;55.894;-3.052;2023-05-10T07:07:33;100306.22;;;17.07;39.43
80397;BME280;69721;55.894;-3.052;2023-05-10T07:09:58;100301.24;;;16.42;39.50
80397;BME280;69721;55.894;-3.052;2023-05-10T07:12:24;100299.86;;;16.58;40.28
80397;BME280;69721;55.894;-3.052;2023-05-10T07:14:49;100303.65;;;16.04;40.72
80397;BME280;69721;55.894;-3.052;2023-05-10T07:17:15;100306.35;;;16.87;40.01
80397;BME280;69721;55.894;-3.052;2023-05-10T07:19:41;100304.73;;;15.97;42.11
80397;BME280;69721;55.894;-3.052;2023-05-10T07:22:06;100308.55;;;15.60;42.94
80397;BME280;69721;55.894;-3.052;2023-05-10T07:24:32;100309.42;;;14.52;45.42
80397;BME280;69721;55.894;-3.052;2023-05-10T07:27:02;100309.40;;;14.91;46.15
80397;BME280;69721;55.894;-3.052;2023-05-10T07:29:22;100309.95;;;14.96;45.58
80397;BME280;69721;55.894;-3.052;2023-05-10T07:31:48;100301.75;;;15.72;44.55
80397;BME280;69721;55.894;-3.052;2023-05-10T07:34:13;100298.76;;;16.65;42.94
80397;BME280;69721;55.894;-3.052;2023-05-10T07:36:38;100300.86;;;17.11;42.08
80397;BME280;69721;55.894;-3.052;2023-05-10T07:39:04;100298.31;;;17.23;41.96
80397;BME280;69721;55.894;-3.052;2023-05-10T07:41:29;100302.39;;;16.96;42.10
80397;BME280;69721;55.894;-3.052;2023-05-10T07:43:54;100297.27;;;17.13;42.19
80397;BME280;69721;55.894;-3.052;2023-05-10T07:46:20;100296.47;;;18.00;41.44
80397;BME280;69721;55.894;-3.052;2023-05-10T07:48:45;100292.67;;;17.58;40.74
80397;BME280;69721;55.894;-3.052;2023-05-10T07:51:11;100294.11;;;17.54;40.50
80397;BME280;69721;55.894;-3.052;2023-05-10T07:53:37;100292.46;;;17.76;40.57
80397;BME280;69721;55.894;-3.052;2023-05-10T07:58:27;100296.22;;;17.40;40.88
80397;BME280;69721;55.894;-3.052;2023-05-10T08:00:52;100297.39;;;17.39;42.21
80397;BME280;69721;55.894;-3.052;2023-05-10T08:03:18;100299.61;;;16.67;42.32
80397;BME280;69721;55.894;-3.052;2023-05-10T08:05:43;100300.94;;;15.98;43.48
80397;BME280;69721;55.894;-3.052;2023-05-10T08:08:09;100300.16;;;16.17;44.11
80397;BME280;69721;55.894;-3.052;2023-05-10T08:10:35;100297.93;;;16.59;43.14
80397;BME280;69721;55.894;-3.052;2023-05-10T08:12:59;100295.59;;;16.66;42.84
80397;BME280;69721;55.894;-3.052;2023-05-10T08:15:25;100293.18;;;17.58;42.77
80397;BME280;69721;55.894;-3.052;2023-05-10T08:17:51;100290.85;;;17.53;41.97
80397;BME280;69721;55.894;-3.052;2023-05-10T08:20:16;100289.53;;;16.27;43.40
80397;BME280;69721;55.894;-3.052;2023-05-10T08:22:41;100292.38;;;16.36;43.04
80397;BME280;69721;55.894;-3.052;2023-05-10T08:25:07;100294.38;;;16.13;44.31
80397;BME280;69721;55.894;-3.052;2023-05-10T08:27:32;100294.30;;;17.42;43.44
80397;BME280;69721;55.894;-3.052;2023-05-10T08:29:57;100296.40;;;17.09;41.62
80397;BME280;69721;55.894;-3.052;2023-05-10T08:32:24;100292.91;;;15.98;43.24
80397;BME280;69721;55.894;-3.052;2023-05-10T08:34:50;100298.57;;;17.00;42.12
80397;BME280;69721;55.894;-3.052;2023-05-10T08:37:15;100291.59;;;17.27;41.90
80397;BME280;69721;55.894;-3.052;2023-05-10T08:39:41;100290.89;;;16.58;43.61
80397;BME280;69721;55.894;-3.052;2023-05-10T08:42:06;100292.76;;;16.96;42.01
80397;BME280;69721;55.894;-3.052;2023-05-10T08:44:32;100294.50;;;17.13;41.75
80397;BME280;69721;55.894;-3.052;2023-05-10T08:46:57;100294.15;;;16.36;42.94
80397;BME280;69721;55.894;-3.052;2023-05-10T08:49:23;100294.56;;;15.73;43.61
80397;BME280;69721;55.894;-3.052;2023-05-10T08:51:54;100297.23;;;16.15;42.89
80397;BME280;69721;55.894;-3.052;2023-05-10T08:54:14;100291.79;;;17.06;42.09
80397;BME280;69721;55.894;-3.052;2023-05-10T08:56:38;100293.08;;;17.54;42.30
80397;BME280;69721;55.894;-3.052;2023-05-10T08:59:04;100293.67;;;17.80;40.05
80397;BME280;69721;55.894;-3.052;2023-05-10T09:01:31;100296.11;;;16.33;41.99
80397;BME280;69721;55.894;-3.052;2023-05-10T09:03:55;100295.06;;;16.71;42.39
80397;BME280;69721;55.894;-3.052;2023-05-10T09:06:20;100292.89;;;16.65;43.15
80397;BME280;69721;55.894;-3.052;2023-05-10T09:08:45;100292.08;;;16.94;43.19
80397;BME280;69721;55.894;-3.052;2023-05-10T09:11:11;100292.59;;;17.69;41.58
80397;BME280;69721;55.894;-3.052;2023-05-10T09:13:36;100290.60;;;17.84;40.99
80397;BME280;69721;55.894;-3.052;2023-05-10T09:16:02;100291.37;;;17.10;42.37
80397;BME280;69721;55.894;-3.052;2023-05-10T09:18:27;100281.54;;;16.85;41.85
80397;BME280;69721;55.894;-3.052;2023-05-10T09:20:52;100281.98;;;18.17;40.54
80397;BME280;69721;55.894;-3.052;2023-05-10T09:23:18;100279.82;;;18.41;40.06
80397;BME280;69721;55.894;-3.052;2023-05-10T09:25:44;100283.34;;;18.21;41.43
80397;BME280;69721;55.894;-3.052;2023-05-10T09:28:09;100271.64;;;18.79;39.38
80397;BME280;69721;55.894;-3.052;2023-05-10T09:30:35;100272.65;;;19.66;39.29
80397;BME280;69721;55.894;-3.052;2023-05-10T09:33:01;100272.88;;;19.94;37.58
80397;BME280;69721;55.894;-3.052;2023-05-10T09:35:26;100273.77;;;18.06;37.98
80397;BME280;69721;55.894;-3.052;2023-05-10T09:37:52;100277.04;;;18.51;39.90
80397;BME280;69721;55.894;-3.052;2023-05-10T09:40:17;100281.72;;;16.78;42.60
80397;BME280;69721;55.894;-3.052;2023-05-10T09:42:50;100281.13;;;16.37;44.73
80397;BME280;69721;55.894;-3.052;2023-05-10T09:45:07;100283.20;;;17.03;43.25
80397;BME280;69721;55.894;-3.052;2023-05-10T09:47:34;100282.82;;;17.28;43.49
80397;BME280;69721;55.894;-3.052;2023-05-10T09:49:58;100284.22;;;16.02;45.29
80397;BME280;69721;55.894;-3.052;2023-05-10T09:52:23;100282.72;;;17.06;44.32
80397;BME280;69721;55.894;-3.052;2023-05-10T09:54:53;100286.88;;;18.31;42.90
80397;BME280;69721;55.894;-3.052;2023-05-10T09:57:20;100282.91;;;16.96;44.17
80397;BME280;69721;55.894;-3.052;2023-05-10T09:59:43;100281.53;;;17.11;44.25
80397;BME280;69721;55.894;-3.052;2023-05-10T10:02:07;100280.05;;;17.20;43.87
80397;BME280;69721;55.894;-3.052;2023-05-10T10:04:32;100276.78;;;18.18;42.76
80397;BME280;69721;55.894;-3.052;2023-05-10T10:07:00;100276.24;;;18.15;42.54
80397;BME280;69721;55.894;-3.052;2023-05-10T10:09:23;100279.48;;;18.39;43.37
80397;BME280;69721;55.894;-3.052;2023-05-10T10:11:48;100282.93;;;16.93;47.61
80397;BME280;69721;55.894;-3.052;2023-05-10T10:14:14;100278.79;;;17.61;47.03
80397;BME280;69721;55.894;-3.052;2023-05-10T10:16:39;100275.05;;;17.51;45.63
80397;BME280;69721;55.894;-3.052;2023-05-10T10:19:06;100277.11;;;18.00;47.11
80397;BME280;69721;55.894;-3.052;2023-05-10T10:21:30;100266.96;;;18.42;45.35
80397;BME280;69721;55.894;-3.052;2023-05-10T10:23:55;100266.00;;;18.16;45.86
80397;BME280;69721;55.894;-3.052;2023-05-10T10:26:21;100258.14;;;18.79;44.70
80397;BME280;69721;55.894;-3.052;2023-05-10T10:28:50;100255.40;;;18.51;45.46
80397;BME280;69721;55.894;-3.052;2023-05-10T10:31:17;100248.89;;;18.78;45.59
80397;BME280;69721;55.894;-3.052;2023-05-10T10:36:03;100249.33;;;17.62;43.77
80397;BME280;69721;55.894;-3.052;2023-05-10T10:38:37;100242.40;;;18.76;41.10
80397;BME280;69721;55.894;-3.052;2023-05-10T10:41:01;100242.43;;;18.30;44.97
80397;BME280;69721;55.894;-3.052;2023-05-10T10:43:22;100238.40;;;18.25;45.16
80397;BME280;69721;55.894;-3.052;2023-05-10T10:45:48;100239.06;;;18.61;42.30
80397;BME280;69721;55.894;-3.052;2023-05-10T10:48:20;100237.64;;;19.38;41.21
80397;BME280;69721;55.894;-3.052;2023-05-10T10:50:43;100231.83;;;19.16;40.16
80397;BME280;69721;55.894;-3.052;2023-05-10T10:55:25;100236.20;;;20.02;40.29
80397;BME280;69721;55.894;-3.052;2023-05-10T10:57:52;100234.54;;;18.61;42.27
80397;BME280;69721;55.894;-3.052;2023-05-10T11:00:23;100229.09;;;19.16;41.31
80397;BME280;69721;55.894;-3.052;2023-05-10T11:02:45;100230.11;;;20.02;38.45
80397;BME280;69721;55.894;-3.052;2023-05-10T11:07:32;100227.08;;;20.19;40.40
80397;BME280;69721;55.894;-3.052;2023-05-10T11:10:04;100227.11;;;19.60;38.71
80397;BME280;69721;55.894;-3.052;2023-05-10T11:12:23;100231.60;;;19.67;38.57
80397;BME280;69721;55.894;-3.052;2023-05-10T11:14:50;100225.52;;;19.08;39.34
80397;BME280;69721;55.894;-3.052;2023-05-10T11:17:23;100225.09;;;18.74;38.55
80397;BME280;69721;55.894;-3.052;2023-05-10T11:22:13;100219.93;;;18.77;39.36
80397;BME280;69721;55.894;-3.052;2023-05-10T11:24:29;100229.86;;;16.73;40.94
80397;BME280;69721;55.894;-3.052;2023-05-10T11:26:55;100232.71;;;16.84;41.39
80397;BME280;69721;55.894;-3.052;2023-05-10T11:29:20;100235.70;;;17.29;40.42
80397;BME280;69721;55.894;-3.052;2023-05-10T11:31:46;100234.06;;;17.19;43.39
80397;BME280;69721;55.894;-3.052;2023-05-10T11:34:11;100228.80;;;18.64;41.70
80397;BME280;69721;55.894;-3.052;2023-05-10T11:36:36;100228.94;;;18.43;39.60
80397;BME280;69721;55.894;-3.052;2023-05-10T11:39:02;100239.22;;;18.84;40.39
80397;BME280;69721;55.894;-3.052;2023-05-10T11:41:29;100244.66;;;17.54;38.45
80397;BME280;69721;55.894;-3.052;2023-05-10T11:43:54;100248.14;;;15.73;43.18
80397;BME280;69721;55.894;-3.052;2023-05-10T11:46:19;100251.90;;;16.61;41.88
80397;BME280;69721;55.894;-3.052;2023-05-10T11:48:43;100247.96;;;16.31;42.19
80397;BME280;69721;55.894;-3.052;2023-05-10T11:51:09;100256.06;;;16.08;42.77
80397;BME280;69721;55.894;-3.052;2023-05-10T11:53:34;100266.36;;;15.56;43.36
80397;BME280;69721;55.894;-3.052;2023-05-10T11:56:03;100266.88;;;14.22;45.46
80397;BME280;69721;55.894;-3.052;2023-05-10T11:58:24;100269.14;;;14.44;47.75
80397;BME280;69721;55.894;-3.052;2023-05-10T12:00:50;100269.21;;;14.68;48.32
80397;BME280;69721;55.894;-3.052;2023-05-10T12:03:15;100277.53;;;13.78;51.57
80397;BME280;69721;55.894;-3.052;2023-05-10T12:05:40;100282.30;;;13.51;52.38
80397;BME280;69721;55.894;-3.052;2023-05-10T12:08:12;100290.87;;;12.83;53.58
80397;BME280;69721;55.894;-3.052;2023-05-10T12:10:34;100283.92;;;14.33;51.61
80397;BME280;69721;55.894;-3.052;2023-05-10T12:12:58;100280.26;;;15.34;48.96
80397;BME280;69721;55.894;-3.052;2023-05-10T12:15:24;100279.42;;;15.21;50.94
80397;BME280;69721;55.894;-3.052;2023-05-10T12:17:50;100276.08;;;15.70;49.35
80397;BME280;69721;55.894;-3.052;2023-05-10T12:20:17;100275.25;;;17.00;47.75
80397;BME280;69721;55.894;-3.052;2023-05-10T12:22:40;100273.31;;;16.90;45.47
80397;BME280;69721;55.894;-3.052;2023-05-10T12:25:08;100269.95;;;17.49;44.55
80397;BME280;69721;55.894;-3.052;2023-05-10T12:27:32;100270.70;;;17.92;43.56
80397;BME280;69721;55.894;-3.052;2023-05-10T12:29:59;100272.27;;;18.33;42.12
80397;BME280;69721;55.894;-3.052;2023-05-10T12:34:47;100265.21;;;18.87;41.37
80397;BME280;69721;55.894;-3.052;2023-05-10T12:37:13;100264.37;;;18.48;43.68
80397;BME280;69721;55.894;-3.052;2023-05-10T12:39:40;100257.88;;;19.69;44.55
80397;BME280;69721;55.894;-3.052;2023-05-10T12:42:04;100255.11;;;19.48;44.39
80397;BME280;69721;55.894;-3.052;2023-05-10T12:44:29;100257.58;;;20.21;43.47